Terminal Aerodrome Forecast
Issued by NWS

Home | Current Version | Previous Version | Text Only | Print | Product List | Glossary On
Versions: 1 2 3 4 5 6 7 8 9 10 11 12 13 14 15 16 17 18 19 20 21 22 23 24 25 26 27 28 29 30
069
FTUS41 KOKX 230556
TAFHPN
TAF
KHPN 230556Z 2306/2406 VRB03KT P6SM VCSH OVC060
     FM230900 03004KT P6SM OVC060
     FM231600 07006KT P6SM BKN060
     FM231800 11006KT P6SM BKN060
     FM240500 10005KT P6SM VCSH OVC030
      AMD NOT SKED=

USA.gov is the U.S. government's official web portal to all federal, state and local government web resources and services.